Academy, New Jersey
Current Conditions -  °F | °C
As of 9:51 PM on Saturday 25 Oct 2014 (Local Time) from KEWR Reporting Station
Scattered Clouds Scattered Clouds  
Wind Chill: 61°   Ceiling: Unl
Heat Index: 61°   Visibility: 10mi
Dew Point: 45°   Wind: 16mph
Humidity: 56%   Direction: 220°SW
Pressure: 29.62"   Gusts: 23mph
Location:  40.7334°N, 74.1735°W
Report Text: KEWR 260151Z 22014G20KT 10SM FEW070 SCT250 16/07 A2962 RMK AO2 SLP028 T01610072
Loading
Personal Weather Stations






























Interactive Weather Map New forecast layout! Learn more

10-Day Weather Forecast

Advertisements
Track Severe Weather on mobile